SGAS/ASU METAR and TAF weather

Enter ICAO airport designator
Station Type Date Time Source
SGAS METAR 2022/06/26 08:00 UTC NOAA

SGAS 260800Z 20004KT 4000 DZBR OVC003 16/16 Q1021


Station Type Date Time Source
SGAS Decoded METAR 2022/06/26 08:00 UTC NOAA

Asuncion / Aeropuerto, Paraguay (SGAS) 25-16S 057-38W 101M
Jun 26, 2022 - 04:00 AM EDT / 2022.06.26 0800 UTC
Wind: from the SSW (200 degrees) at 5 MPH (4 KT):0
Visibility: 2 mile(s):0
Sky conditions: overcast
Weather: drizzle, mist
Temperature: 60 F (16 C)
Dew Point: 60 F (16 C)
Relative Humidity: 100%
Pressure (altimeter): 30.15 in. Hg (1021 hPa)
ob: SGAS 260800Z 20004KT 4000 DZBR OVC003 16/16 Q1021
cycle: 8

Station Type Date Time Source
SGAS TAF 2022/06/26 06:18 UTC NOAA

TAF SGAS 260415Z 2606/2706 21005KT 3000 DZ BR OVC004 TX20/2618Z TN14/2610Z PROB30 2607/2610 0800 FG OVC003
BECMG 2611/2613 5000 BR BKN006 OVC012
BECMG 2616/2619 9999 BKN012 OVC020

Example: see airport list